大阪空港の過去48時間の天気

大阪空港 (Osaka/Intl)

現在時刻: 11/24 00:13 JST (11/23 15:13 UTC) 以下の時間は現地時間です。

過去48時間のMETAR気象情報
時間 風向 風速(m/s) 視程 気温(℃) 湿度(%) 気圧(hPa) 天気現象
23 20:00 西北西 3 10km以上 8 46 1017
23 19:00 西北西 3 10km以上 8 46 1016
23 18:00 北西 4 10km以上 9 43 1015
23 17:00 北北西 7 10km以上 10 43 1014
23 16:00 北西 6 10km以上 12 35 1013
23 15:00 北北西 7 10km以上 13 41 1012
23 14:00 西北西 6 10km以上 14 29 1011
23 13:00 西北西 6 10km以上 14 38 1011
23 12:00 西北西 6 10km以上 14 41 1010
23 11:06 北西 8 10km以上 14 47 1010
23 11:00 北西 7 10km以上 13 51 1010
23 10:00 西 3 10km以上 13 58 1011
23 09:00 西北西 4 10km以上 12 67 1010
23 08:00 北西 3 10km以上 11 82 1010
23 07:00 北西 2 10km以上 10 94 1010
23 06:00 北西 2 10km以上 10 94 1010
23 05:00 不定 1 10km以上 10 94 1010 弱い雨
22 20:00 北西 3 10km以上 11 87 1015 弱いしゅう雨
22 19:00 北西 3 10km以上 11 87 1015 弱いしゅう雨
22 18:00 北北西 3 10km以上 12 77 1015 弱いしゅう雨
22 17:00 北北西 3 10km以上 13 58 1015 周辺でしゅう雨
22 16:00 北東 3 10km以上 14 51 1015 周辺でしゅう雨
22 15:00 東北東 4 10km以上 14 51 1015
22 14:00 東北東 4 10km以上 14 47 1016
22 13:00 東北東 3 10km以上 12 54 1017
22 12:00 4 10km以上 12 50 1019
22 11:00 東北東 3 10km以上 11 50 1020
22 10:00 東北東 5 10km以上 10 54 1021
22 09:00 東北東 3 10km以上 9 53 1022
22 08:00 不定 1 10km以上 5 75 1023
22 07:00 西北西 2 10km以上 3 81 1023
22 06:00 北西 2 10km以上 3 81 1023
22 05:00 北西 1 10km以上 2 87 1023
RJOO 231100Z 30006KT 260V330 9999 FEW030 08/M03 Q1017 RMK 1CU030 A3004 MOD TURB OBS AT 1030Z FM ROSIE TO JANGO BTN FL170 AND FL160 IN DES CRJ2
RJOO 231000Z 30005KT 9999 FEW030 08/M03 Q1016 RMK 1CU030 A3003
RJOO 230900Z 31008KT 9999 FEW030 09/M03 Q1015 RMK 1CU030 A3000
RJOO 230800Z 33014KT 9999 FEW020 SCT070 10/M02 Q1014 RMK 1CU020 3AC070 A2996
RJOO 230700Z 32011KT 9999 FEW020 SCT050 12/M03 Q1013 RMK 1CU020 3SC050 A2992
RJOO 230600Z 34013KT 9999 FEW020 SCT050 13/00 Q1012 RMK 1CU020 3SC050 A2989
RJOO 230500Z 30011G21KT 260V340 9999 FEW020 SCT060 14/M04 Q1011 RMK 1CU020 3SC060 A2987
RJOO 230400Z 30011KT 270V330 9999 FEW020 SCT050 14/M00 Q1011 RMK 1CU020 3SC050 A2986
RJOO 230300Z 30011KT 260V330 9999 FEW020 SCT045 14/01 Q1010 RMK 1CU020 3CU045 A2984
RJOO 230206Z 32015G28KT 9999 FEW015 SCT040 14/03 Q1010 RMK 1CU015 3CU040 A2984
RJOO 230200Z 32014KT 290V030 9999 FEW015 SCT040 13/03 Q1010 RMK 1CU015 3CU040 A2984
RJOO 230100Z 27005KT 220V320 9999 FEW015 SCT/// 13/05 Q1011 RMK 1CU015 A2985
RJOO 230000Z 29007KT 240V320 9999 FEW015 12/06 Q1010 RMK 1CU015 A2985 MOD TURB OBS AT 2330Z MUGIE BTN FL250 AND FL190 IN DES E190
RJOO 222300Z 32005KT 9999 FEW015 11/08 Q1010 RMK 1CU015 A2984
RJOO 222200Z 31004KT 9999 FEW010 SCT050 BKN150 10/09 Q1010 RMK 1ST010 3SC050 5AC150 A2985
RJOO 222100Z 31003KT 9999 FEW010 BKN070 10/09 Q1010 RMK 1ST010 6AC070 A2983
RJOO 222000Z VRB02KT 9999 -RA FEW008 SCT025 BKN060 10/09 Q1010 RMK 1ST008 3CU025 5SC060 A2985
RJOO 221100Z 32006KT 9999 -SHRA FEW020 SCT040 BKN050 11/09 Q1015 RMK 1CU020 4CU040 7SC050 A2999
RJOO 221000Z 32006KT 9999 -SHRA FEW025 SCT045 BKN060 11/09 Q1015 RMK 1CU025 4CU045 7SC060 A2998
RJOO 220900Z 34005KT 9999 -SHRA FEW025 SCT045 BKN060 12/08 Q1015 RMK 1CU025 4CU045 6SC060 A2999
RJOO 220800Z 34005KT 9999 VCSH FEW030 BKN060 BKN080 13/05 Q1015 RMK 1CU030 5SC060 6AC080 A2999
RJOO 220700Z 05005KT 030V090 9999 VCSH FEW030 SCT070 BKN090 14/04 Q1015 RMK 1CU030 3AC070 5AC090 A2998
RJOO 220600Z 07008KT 9999 FEW030 SCT070 BKN110 14/04 Q1015 RMK 1CU030 3AC070 5AC110 A2999
RJOO 220500Z 07007KT 040V100 9999 FEW030 SCT110 BKN/// 14/03 Q1016 RMK 1CU030 4AC110 A3000
RJOO 220400Z 07006KT 9999 FEW030 BKN110 12/03 Q1017 RMK 1CU030 7AC110 A3005
RJOO 220300Z 08007KT 9999 FEW025 SCT130 BKN150 12/02 Q1019 RMK 1CU025 3AC130 5AC150 A3010
RJOO 220200Z 07006KT 030V110 9999 FEW025 SCT170 BKN/// 11/01 Q1020 RMK 2CU025 4AC170 A3013
RJOO 220100Z 06010KT 9999 FEW025 BKN170 BKN/// 10/01 Q1021 RMK 1CU025 5AC170 A3017
RJOO 220000Z 06006KT 010V090 9999 FEW025 BKN/// 09/00 Q1022 RMK 1CU025 A3020
RJOO 212300Z VRB01KT 9999 FEW030 SCT045 BKN/// 05/01 Q1023 RMK 1CU030 3CU045 A3023
RJOO 212200Z 30003KT 250V340 9999 FEW030 BKN/// 03/M00 Q1023 RMK 1CU030 A3022
RJOO 212100Z 31003KT 9999 FEW030 SCT045 03/M00 Q1023 RMK 1CU030 3SC045 A3022
RJOO 212000Z 31002KT 9999 FEW030 SCT045 02/M00 Q1023 RMK 1CU030 3SC045 A3023